Time;durP1;ratioP1;P1;durP2;ratioP2;P2;SDS_P1;SDS_P2;PMS_P1;PMS_P2;Temp;Humidity;BMP_temperature;BMP_pressure;BME280_temperature;BME280_humidity;BME280_pressure;Samples;Min_cycle;Max_cycle;Signal;HPM_P1;HPM_P2
2022/12/03 00:00:36;;;;;;;24.88;11.18;;;;;;;;;;5042480;28;20173;-77
2022/12/03 00:03:04;;;;;;;23.42;11.32;;;;;;;;;;5044541;28;20818;-77
2022/12/03 00:05:32;;;;;;;26.95;12.27;;;;;;;;;;5043481;28;20550;-77
2022/12/03 00:07:59;;;;;;;24.17;12.05;;;;;;;;;;5037103;28;20079;-77
2022/12/03 00:10:26;;;;;;;24.75;11.70;;;;;;;;;;5051107;28;20057;-78
2022/12/03 00:12:54;;;;;;;28.17;12.75;;;;;;;;;;5049089;28;20056;-77
2022/12/03 00:15:21;;;;;;;26.52;11.63;;;;;;;;;;5047003;28;20056;-78
2022/12/03 00:17:49;;;;;;;26.65;12.48;;;;;;;;;;5052100;28;20056;-77
2022/12/03 00:20:21;;;;;;;28.05;12.73;;;;;;;;;;5046068;28;20105;-77
2022/12/03 00:22:48;;;;;;;26.50;12.27;;;;;;;;;;5039427;28;20065;-78
2022/12/03 00:25:16;;;;;;;26.13;11.75;;;;;;;;;;5046142;28;20049;-78
2022/12/03 00:27:44;;;;;;;29.30;11.77;;;;;;;;;;5046651;28;20144;-78
2022/12/03 00:30:11;;;;;;;23.10;11.35;;;;;;;;;;5047560;28;20157;-77
2022/12/03 00:32:39;;;;;;;31.30;12.63;;;;;;;;;;5046031;28;20148;-78
2022/12/03 00:35:06;;;;;;;25.98;12.65;;;;;;;;;;5042035;28;20168;-77
2022/12/03 00:37:34;;;;;;;27.55;12.68;;;;;;;;;;5043323;28;20080;-77
2022/12/03 00:40:02;;;;;;;30.17;12.52;;;;;;;;;;5047081;28;20056;-77
2022/12/03 00:42:29;;;;;;;28.25;12.15;;;;;;;;;;5042572;28;20144;-78
2022/12/03 00:44:56;;;;;;;28.20;12.73;;;;;;;;;;5041495;28;20049;-77
2022/12/03 00:47:23;;;;;;;27.92;12.27;;;;;;;;;;5045661;28;20901;-78
2022/12/03 00:49:50;;;;;;;28.45;12.77;;;;;;;;;;5041736;28;20058;-77
2022/12/03 00:52:17;;;;;;;23.50;12.50;;;;;;;;;;5046816;28;23406;-78
2022/12/03 00:54:45;;;;;;;27.90;12.43;;;;;;;;;;5045042;28;20133;-78
2022/12/03 00:57:15;;;;;;;27.45;11.80;;;;;;;;;;5038663;28;20144;-77
2022/12/03 00:59:42;;;;;;;30.95;12.38;;;;;;;;;;5047398;28;20056;-78
2022/12/03 01:02:09;;;;;;;30.33;13.40;;;;;;;;;;5041375;28;20056;-77
2022/12/03 01:04:37;;;;;;;28.58;12.38;;;;;;;;;;5040416;28;20123;-77
2022/12/03 01:07:04;;;;;;;29.88;13.00;;;;;;;;;;5042567;28;20052;-77
2022/12/03 01:09:32;;;;;;;28.02;12.30;;;;;;;;;;5044083;28;20045;-77
2022/12/03 01:11:59;;;;;;;28.73;12.57;;;;;;;;;;5048001;28;20580;-78
2022/12/03 01:14:26;;;;;;;27.52;12.35;;;;;;;;;;5045711;28;20060;-78
2022/12/03 01:16:53;;;;;;;27.20;12.05;;;;;;;;;;5042460;28;20496;-77
2022/12/03 01:19:20;;;;;;;27.50;11.85;;;;;;;;;;5046410;28;20061;-77
2022/12/03 01:21:49;;;;;;;27.25;12.90;;;;;;;;;;5041874;28;20056;-78
2022/12/03 01:24:16;;;;;;;29.13;12.88;;;;;;;;;;5042610;28;20523;-77
2022/12/03 01:26:44;;;;;;;31.48;12.43;;;;;;;;;;5040549;28;20048;-78
2022/12/03 01:29:11;;;;;;;22.23;9.88;;;;;;;;;;5036233;28;20053;-78
2022/12/03 01:34:25;;;;;;;30.42;13.57;;;;;;;;;;5041851;28;20057;-78
2022/12/03 01:36:53;;;;;;;29.30;12.45;;;;;;;;;;5041555;28;20488;-77
2022/12/03 01:39:20;;;;;;;26.90;11.93;;;;;;;;;;5045991;28;20523;-78
2022/12/03 01:41:48;;;;;;;29.58;12.90;;;;;;;;;;5041720;28;20053;-77
2022/12/03 01:44:30;;;;;;;23.58;11.77;;;;;;;;;;5041302;28;20049;-77
2022/12/03 01:46:59;;;;;;;27.60;12.38;;;;;;;;;;5047359;28;20053;-78
2022/12/03 01:49:35;;;;;;;26.42;12.32;;;;;;;;;;5040468;28;20049;-78
2022/12/03 01:52:02;;;;;;;26.70;12.00;;;;;;;;;;5044686;28;20522;-78
2022/12/03 01:54:41;;;;;;;28.35;12.55;;;;;;;;;;5041451;28;20046;-78
2022/12/03 01:57:21;;;;;;;29.73;13.05;;;;;;;;;;5040792;28;20277;-78
2022/12/03 01:59:48;;;;;;;30.65;13.15;;;;;;;;;;5040878;28;20524;-77
2022/12/03 02:02:27;;;;;;;27.27;13.27;;;;;;;;;;5043476;28;20419;-77
2022/12/03 02:04:55;;;;;;;24.50;11.70;;;;;;;;;;5042073;28;20127;-78
2022/12/03 02:07:25;;;;;;;28.13;12.88;;;;;;;;;;5039373;28;20053;-77
2022/12/03 02:09:53;;;;;;;31.92;12.50;;;;;;;;;;5044197;28;20131;-77
2022/12/03 02:12:23;;;;;;;26.15;12.23;;;;;;;;;;5040172;28;20057;-78
2022/12/03 02:14:54;;;;;;;29.35;12.73;;;;;;;;;;5047913;28;20061;-78
2022/12/03 02:17:22;;;;;;;29.33;12.25;;;;;;;;;;5048910;28;20137;-77
2022/12/03 02:19:49;;;;;;;30.30;13.77;;;;;;;;;;5043571;28;20499;-77
2022/12/03 02:22:36;;;;;;;28.30;12.68;;;;;;;;;;5044370;28;20046;-78
2022/12/03 02:25:11;;;;;;;32.92;13.25;;;;;;;;;;5040739;28;20050;-78
2022/12/03 02:27:42;;;;;;;33.22;13.45;;;;;;;;;;5045517;28;20420;-78
2022/12/03 02:30:10;;;;;;;28.88;13.02;;;;;;;;;;5044156;28;20050;-77
2022/12/03 02:32:37;;;;;;;31.27;12.95;;;;;;;;;;5043476;28;20522;-78
2022/12/03 02:35:05;;;;;;;27.73;12.48;;;;;;;;;;5043415;28;20053;-78
2022/12/03 02:37:34;;;;;;;30.63;13.63;;;;;;;;;;5046487;28;20056;-77
2022/12/03 02:40:08;;;;;;;27.15;12.27;;;;;;;;;;5044805;28;20064;-78
2022/12/03 02:42:37;;;;;;;29.55;13.30;;;;;;;;;;5036555;28;20129;-77
2022/12/03 02:45:07;;;;;;;28.25;12.57;;;;;;;;;;5052134;28;20050;-76
2022/12/03 02:47:36;;;;;;;27.48;12.90;;;;;;;;;;5036789;28;20060;-77
2022/12/03 02:50:04;;;;;;;31.17;12.60;;;;;;;;;;5038234;28;20749;-78
2022/12/03 02:52:32;;;;;;;28.23;13.95;;;;;;;;;;5041913;28;20072;-77
2022/12/03 02:54:59;;;;;;;31.52;13.13;;;;;;;;;;5046870;28;20049;-78
2022/12/03 02:57:27;;;;;;;29.17;12.40;;;;;;;;;;5045414;28;20051;-78
2022/12/03 02:59:54;;;;;;;28.50;12.68;;;;;;;;;;5043241;28;20512;-77
2022/12/03 03:02:22;;;;;;;30.90;12.98;;;;;;;;;;5045123;28;20504;-77
2022/12/03 03:04:49;;;;;;;26.98;12.68;;;;;;;;;;5044566;28;20107;-77
2022/12/03 03:07:18;;;;;;;26.73;13.10;;;;;;;;;;5031109;28;20128;-77
2022/12/03 03:09:45;;;;;;;27.38;11.82;;;;;;;;;;5044542;28;20088;-77
2022/12/03 03:12:12;;;;;;;30.23;13.20;;;;;;;;;;5045420;28;20096;-77
2022/12/03 03:14:39;;;;;;;30.05;13.43;;;;;;;;;;5047424;28;20139;-77
2022/12/03 03:17:07;;;;;;;28.58;13.75;;;;;;;;;;5044190;28;20049;-77
2022/12/03 03:19:35;;;;;;;27.95;12.85;;;;;;;;;;5040475;28;20060;-77
2022/12/03 03:22:02;;;;;;;29.23;13.48;;;;;;;;;;5032786;28;20061;-77
2022/12/03 03:24:31;;;;;;;30.85;13.05;;;;;;;;;;5046102;28;20045;-77
2022/12/03 03:26:58;;;;;;;28.15;12.27;;;;;;;;;;5037490;28;20049;-77
2022/12/03 03:29:25;;;;;;;33.58;14.65;;;;;;;;;;5042471;28;20776;-77
2022/12/03 03:31:53;;;;;;;30.70;13.52;;;;;;;;;;5039783;28;20046;-77
2022/12/03 03:34:20;;;;;;;28.05;13.10;;;;;;;;;;5042045;28;20500;-77
2022/12/03 03:36:51;;;;;;;30.65;13.63;;;;;;;;;;5043658;28;20049;-77
2022/12/03 03:39:18;;;;;;;32.60;13.95;;;;;;;;;;5043092;28;20046;-78
2022/12/03 03:41:46;;;;;;;33.22;14.00;;;;;;;;;;5038537;28;20107;-77
2022/12/03 03:44:13;;;;;;;29.58;12.70;;;;;;;;;;5045526;28;20136;-78
2022/12/03 03:46:40;;;;;;;29.70;13.20;;;;;;;;;;5045710;28;20458;-77
2022/12/03 03:49:09;;;;;;;34.78;14.73;;;;;;;;;;5033888;28;20068;-77
2022/12/03 03:51:37;;;;;;;35.65;14.18;;;;;;;;;;5045320;28;20059;-77
2022/12/03 03:54:08;;;;;;;34.30;14.73;;;;;;;;;;5043292;28;20491;-79
2022/12/03 03:56:35;;;;;;;29.10;14.02;;;;;;;;;;5046567;28;20054;-78
2022/12/03 03:59:03;;;;;;;36.75;15.18;;;;;;;;;;5041235;28;20052;-78
2022/12/03 04:01:31;;;;;;;33.60;14.85;;;;;;;;;;5042191;28;20057;-77
2022/12/03 04:03:59;;;;;;;31.67;15.70;;;;;;;;;;5039198;28;20064;-78
2022/12/03 04:06:26;;;;;;;31.52;14.82;;;;;;;;;;5041828;28;20049;-78
2022/12/03 04:08:54;;;;;;;36.95;14.88;;;;;;;;;;5038266;28;20752;-78
2022/12/03 04:14:07;;;;;;;30.98;14.85;;;;;;;;;;5040562;28;20229;-77
2022/12/03 04:16:34;;;;;;;33.55;14.65;;;;;;;;;;5041432;28;20049;-77
2022/12/03 04:19:01;;;;;;;32.92;14.20;;;;;;;;;;5037078;28;20135;-77
2022/12/03 04:24:15;;;;;;;36.40;14.38;;;;;;;;;;5042152;28;20054;-78
2022/12/03 04:29:28;;;;;;;32.08;14.95;;;;;;;;;;5043553;28;20053;-77
2022/12/03 04:37:28;;;;;;;35.35;15.15;;;;;;;;;;5041104;28;20519;-77
2022/12/03 04:39:55;;;;;;;32.20;14.70;;;;;;;;;;5055665;28;20053;-77
2022/12/03 04:42:22;;;;;;;32.05;15.35;;;;;;;;;;5036995;28;20064;-78
2022/12/03 04:44:49;;;;;;;33.13;14.10;;;;;;;;;;5046133;28;20088;-77
2022/12/03 04:47:18;;;;;;;25.85;12.63;;;;;;;;;;5042710;28;20046;-77
2022/12/03 04:49:47;;;;;;;28.52;12.75;;;;;;;;;;5035650;28;20592;-77
2022/12/03 04:52:15;;;;;;;28.73;13.93;;;;;;;;;;5040750;28;20065;-77
2022/12/03 04:54:42;;;;;;;30.02;12.35;;;;;;;;;;5047698;28;20054;-77
2022/12/03 04:57:10;;;;;;;32.60;13.02;;;;;;;;;;5046055;28;20050;-77
2022/12/03 04:59:41;;;;;;;28.35;13.20;;;;;;;;;;5056148;28;20045;-78
2022/12/03 05:02:09;;;;;;;34.10;13.57;;;;;;;;;;5044821;28;20055;-77
2022/12/03 05:04:36;;;;;;;30.88;14.45;;;;;;;;;;5039460;28;20057;-77
2022/12/03 05:07:04;;;;;;;27.38;12.40;;;;;;;;;;5037832;28;20093;-78
2022/12/03 05:09:31;;;;;;;31.50;13.27;;;;;;;;;;5046637;28;20045;-78
2022/12/03 05:11:58;;;;;;;32.15;13.02;;;;;;;;;;5041067;28;20049;-77
2022/12/03 05:14:25;;;;;;;29.42;13.25;;;;;;;;;;5040241;28;20056;-78
2022/12/03 05:16:52;;;;;;;33.08;14.35;;;;;;;;;;5044688;28;20060;-77
2022/12/03 05:19:19;;;;;;;32.20;14.27;;;;;;;;;;5045603;28;20073;-77
2022/12/03 05:21:47;;;;;;;32.80;14.10;;;;;;;;;;5058619;28;20054;-77
2022/12/03 05:24:14;;;;;;;35.60;15.23;;;;;;;;;;5047435;28;20049;-77
2022/12/03 05:26:41;;;;;;;35.40;14.57;;;;;;;;;;5047281;28;20933;-78
2022/12/03 05:29:09;;;;;;;29.88;14.88;;;;;;;;;;5041986;28;20084;-77
2022/12/03 05:31:36;;;;;;;30.38;13.82;;;;;;;;;;5041742;28;20057;-78
2022/12/03 05:34:03;;;;;;;31.70;14.07;;;;;;;;;;5041673;28;20045;-77
2022/12/03 05:36:31;;;;;;;33.63;14.43;;;;;;;;;;5041738;28;20057;-78
2022/12/03 05:38:58;;;;;;;32.45;14.32;;;;;;;;;;5044268;28;20060;-77
2022/12/03 05:44:11;;;;;;;32.58;14.57;;;;;;;;;;5039374;28;20054;-78
2022/12/03 05:46:46;;;;;;;34.05;15.13;;;;;;;;;;5037412;28;20054;-78
2022/12/03 05:49:13;;;;;;;30.38;13.48;;;;;;;;;;5043593;28;20526;-77
2022/12/03 05:51:41;;;;;;;31.33;14.18;;;;;;;;;;5039420;28;20052;-77
2022/12/03 05:54:12;;;;;;;34.53;13.57;;;;;;;;;;5046420;28;20049;-77
2022/12/03 05:56:39;;;;;;;35.20;15.32;;;;;;;;;;5059641;28;20507;-78
2022/12/03 05:59:06;;;;;;;33.80;14.00;;;;;;;;;;5047037;28;20050;-77
2022/12/03 06:01:33;;;;;;;32.05;14.80;;;;;;;;;;5046529;28;20061;-77
2022/12/03 06:04:01;;;;;;;33.47;14.32;;;;;;;;;;5044297;28;20050;-77
2022/12/03 06:06:29;;;;;;;31.75;14.63;;;;;;;;;;5044528;28;20049;-78
2022/12/03 06:08:56;;;;;;;34.20;13.80;;;;;;;;;;5039506;28;20998;-77
2022/12/03 06:11:23;;;;;;;28.27;14.02;;;;;;;;;;5040599;28;20806;-77
2022/12/03 06:13:50;;;;;;;30.85;13.27;;;;;;;;;;5040337;28;20062;-77
2022/12/03 06:16:20;;;;;;;30.08;13.75;;;;;;;;;;5041440;28;20054;-77
2022/12/03 06:18:47;;;;;;;31.75;14.40;;;;;;;;;;5045094;28;20116;-77
2022/12/03 06:21:14;;;;;;;31.63;14.10;;;;;;;;;;5044619;28;20061;-78
2022/12/03 06:23:43;;;;;;;29.77;14.40;;;;;;;;;;5046911;28;20057;-77
2022/12/03 06:26:11;;;;;;;23.92;11.38;;;;;;;;;;5042357;28;20120;-78
2022/12/03 06:28:39;;;;;;;29.63;13.48;;;;;;;;;;5040790;28;20050;-77
2022/12/03 06:31:07;;;;;;;27.02;12.70;;;;;;;;;;5041907;28;20077;-78
2022/12/03 06:33:34;;;;;;;29.63;13.60;;;;;;;;;;5039009;28;20104;-77
2022/12/03 06:36:01;;;;;;;27.63;13.20;;;;;;;;;;5041034;28;20049;-77
2022/12/03 06:38:29;;;;;;;28.20;13.07;;;;;;;;;;5042502;28;20056;-77
2022/12/03 06:40:56;;;;;;;26.58;12.43;;;;;;;;;;5034991;28;20054;-78
2022/12/03 06:43:23;;;;;;;24.95;12.68;;;;;;;;;;5041852;28;20053;-77
2022/12/03 06:45:50;;;;;;;28.02;12.80;;;;;;;;;;5045016;28;20058;-77
2022/12/03 06:48:18;;;;;;;30.05;13.98;;;;;;;;;;5045631;28;20050;-77
2022/12/03 06:50:45;;;;;;;30.48;14.30;;;;;;;;;;5039457;28;20054;-77
2022/12/03 06:53:12;;;;;;;26.85;13.18;;;;;;;;;;5046480;28;20053;-77
2022/12/03 06:55:39;;;;;;;29.63;13.82;;;;;;;;;;5045816;28;20419;-77
2022/12/03 06:58:06;;;;;;;25.60;12.57;;;;;;;;;;5038420;28;20056;-77
2022/12/03 07:00:34;;;;;;;33.90;14.48;;;;;;;;;;5040505;28;20054;-78
2022/12/03 07:03:01;;;;;;;29.92;14.00;;;;;;;;;;5045935;28;20123;-78
2022/12/03 07:05:28;;;;;;;31.17;13.27;;;;;;;;;;5038402;28;20054;-78
2022/12/03 07:07:56;;;;;;;34.45;14.30;;;;;;;;;;5037733;28;20038;-79
2022/12/03 07:10:24;;;;;;;29.20;13.75;;;;;;;;;;5040744;28;20075;-78
2022/12/03 07:12:53;;;;;;;31.63;13.30;;;;;;;;;;5048176;28;20113;-79
2022/12/03 07:15:21;;;;;;;35.10;14.75;;;;;;;;;;5042518;28;20062;-78
2022/12/03 07:17:48;;;;;;;26.40;12.45;;;;;;;;;;5041625;28;20054;-78
2022/12/03 07:20:15;;;;;;;33.20;14.75;;;;;;;;;;5043366;28;20140;-78
2022/12/03 07:22:43;;;;;;;30.88;14.40;;;;;;;;;;5039176;28;20142;-77
2022/12/03 07:25:11;;;;;;;30.77;13.70;;;;;;;;;;5045350;28;20101;-78
2022/12/03 07:27:38;;;;;;;31.27;14.10;;;;;;;;;;5043941;28;20050;-77
2022/12/03 07:30:06;;;;;;;32.25;14.20;;;;;;;;;;5042577;28;20049;-78
2022/12/03 07:32:33;;;;;;;30.95;13.48;;;;;;;;;;5038481;28;20141;-77
2022/12/03 07:35:01;;;;;;;31.48;14.32;;;;;;;;;;5038657;28;20081;-78
2022/12/03 07:37:29;;;;;;;35.40;14.70;;;;;;;;;;5045412;28;20601;-77
2022/12/03 07:39:56;;;;;;;30.20;14.45;;;;;;;;;;5039569;28;20054;-78
2022/12/03 07:42:23;;;;;;;34.30;15.25;;;;;;;;;;5045159;28;20127;-77
2022/12/03 07:44:50;;;;;;;30.50;14.48;;;;;;;;;;5039250;28;20053;-78
2022/12/03 07:47:20;;;;;;;33.97;14.18;;;;;;;;;;5036287;28;20345;-78
2022/12/03 07:49:48;;;;;;;31.90;13.98;;;;;;;;;;5032377;28;20112;-78
2022/12/03 07:52:15;;;;;;;33.42;13.75;;;;;;;;;;5042181;28;20145;-78
2022/12/03 07:54:42;;;;;;;31.42;13.75;;;;;;;;;;5042044;28;20140;-78
2022/12/03 07:57:10;;;;;;;37.28;14.68;;;;;;;;;;5047545;28;20959;-78
2022/12/03 07:59:37;;;;;;;34.67;14.88;;;;;;;;;;5041576;28;20050;-78
2022/12/03 08:02:06;;;;;;;34.28;14.55;;;;;;;;;;5045353;28;20132;-78
2022/12/03 08:04:34;;;;;;;35.28;14.88;;;;;;;;;;5040201;28;20100;-78
2022/12/03 08:07:01;;;;;;;33.13;14.15;;;;;;;;;;5046242;28;21356;-78
2022/12/03 08:09:28;;;;;;;37.35;14.82;;;;;;;;;;5042970;28;20049;-78
2022/12/03 08:12:00;;;;;;;40.75;16.27;;;;;;;;;;5045401;28;20061;-78
2022/12/03 08:14:27;;;;;;;32.50;14.60;;;;;;;;;;5041832;28;20907;-78
2022/12/03 08:16:55;;;;;;;36.30;16.45;;;;;;;;;;5047470;28;20141;-77
2022/12/03 08:19:22;;;;;;;42.85;15.65;;;;;;;;;;5045354;28;20050;-78
2022/12/03 08:21:49;;;;;;;39.03;16.42;;;;;;;;;;5043340;28;20049;-77
2022/12/03 08:24:17;;;;;;;35.63;15.55;;;;;;;;;;5045409;28;20141;-78
2022/12/03 08:26:46;;;;;;;37.83;15.98;;;;;;;;;;5044602;28;20152;-78
2022/12/03 08:29:14;;;;;;;38.38;15.90;;;;;;;;;;5059220;28;20057;-78
2022/12/03 08:31:47;;;;;;;37.88;16.45;;;;;;;;;;5042110;28;20049;-78
2022/12/03 08:34:19;;;;;;;39.40;16.25;;;;;;;;;;5038835;28;20111;-78
2022/12/03 08:36:47;;;;;;;41.33;16.27;;;;;;;;;;5042198;28;20108;-78
2022/12/03 08:39:18;;;;;;;37.17;15.93;;;;;;;;;;5043123;28;21670;-78
2022/12/03 08:44:42;;;;;;;35.05;16.25;;;;;;;;;;5041701;28;20065;-78
2022/12/03 08:47:11;;;;;;;37.38;15.15;;;;;;;;;;5048229;28;20081;-79
2022/12/03 08:49:39;;;;;;;37.33;15.38;;;;;;;;;;5046169;28;20037;-78
2022/12/03 08:52:15;;;;;;;38.60;15.30;;;;;;;;;;5047736;28;20445;-79
2022/12/03 08:54:43;;;;;;;37.05;14.68;;;;;;;;;;5049814;28;20141;-78
2022/12/03 08:57:23;;;;;;;33.47;14.05;;;;;;;;;;5040458;28;20104;-78
2022/12/03 08:59:52;;;;;;;38.13;16.63;;;;;;;;;;5040602;28;20058;-78
2022/12/03 09:02:26;;;;;;;39.78;15.90;;;;;;;;;;5050600;28;20046;-78
2022/12/03 09:04:53;;;;;;;36.75;16.08;;;;;;;;;;5052745;28;20080;-78
2022/12/03 09:07:21;;;;;;;37.88;16.35;;;;;;;;;;5049732;28;20038;-78
2022/12/03 09:09:48;;;;;;;39.22;15.63;;;;;;;;;;5048593;28;20049;-78
2022/12/03 09:12:15;;;;;;;42.55;15.57;;;;;;;;;;5045043;28;20664;-78
2022/12/03 09:14:43;;;;;;;43.97;16.98;;;;;;;;;;5045727;28;20145;-78
2022/12/03 09:17:10;;;;;;;41.38;16.73;;;;;;;;;;5065384;28;20060;-78
2022/12/03 09:19:43;;;;;;;38.90;16.17;;;;;;;;;;5050209;28;20136;-78
2022/12/03 09:22:14;;;;;;;37.40;15.63;;;;;;;;;;5045877;28;20053;-78
2022/12/03 09:24:41;;;;;;;41.80;15.90;;;;;;;;;;5048331;28;20049;-78
2022/12/03 09:27:09;;;;;;;38.35;17.35;;;;;;;;;;5044141;28;20046;-78
2022/12/03 09:29:36;;;;;;;41.03;16.77;;;;;;;;;;5047303;28;20076;-77
2022/12/03 09:32:05;;;;;;;37.50;16.38;;;;;;;;;;5048208;28;20063;-78
2022/12/03 09:34:33;;;;;;;43.83;17.10;;;;;;;;;;5049239;28;20068;-78
2022/12/03 09:37:01;;;;;;;39.53;16.38;;;;;;;;;;5045354;28;20053;-78
2022/12/03 09:39:28;;;;;;;48.95;15.70;;;;;;;;;;5045584;28;20049;-77
2022/12/03 09:41:56;;;;;;;42.13;16.50;;;;;;;;;;5044411;28;20060;-78
2022/12/03 09:44:23;;;;;;;46.70;17.42;;;;;;;;;;5043930;28;20046;-78
2022/12/03 09:46:50;;;;;;;38.38;15.43;;;;;;;;;;5048175;28;20084;-78
2022/12/03 09:49:21;;;;;;;33.15;14.40;;;;;;;;;;5046307;28;22806;-78
2022/12/03 09:51:48;;;;;;;38.03;14.85;;;;;;;;;;5045630;28;20056;-78
2022/12/03 09:54:20;;;;;;;33.42;14.43;;;;;;;;;;5046933;28;20053;-79
2022/12/03 09:56:47;;;;;;;32.90;14.43;;;;;;;;;;5049559;28;20054;-78
2022/12/03 09:59:15;;;;;;;37.00;14.82;;;;;;;;;;5037408;28;20084;-77
2022/12/03 10:01:42;;;;;;;40.35;14.60;;;;;;;;;;5046983;28;20046;-78
2022/12/03 10:04:10;;;;;;;39.95;14.50;;;;;;;;;;5047241;28;20124;-78
2022/12/03 10:06:38;;;;;;;40.85;14.93;;;;;;;;;;5044519;28;20460;-77
2022/12/03 10:09:13;;;;;;;37.80;13.38;;;;;;;;;;5059667;28;20062;-78
2022/12/03 10:11:40;;;;;;;37.95;14.65;;;;;;;;;;5048771;28;20049;-78
2022/12/03 10:14:11;;;;;;;44.50;15.63;;;;;;;;;;5047842;28;20117;-78
2022/12/03 10:16:41;;;;;;;42.45;15.57;;;;;;;;;;5041885;28;20050;-78
2022/12/03 10:19:11;;;;;;;45.92;15.82;;;;;;;;;;5044501;28;20162;-78
2022/12/03 10:21:41;;;;;;;40.28;14.43;;;;;;;;;;5049186;28;20064;-78
2022/12/03 10:24:28;;;;;;;46.83;15.77;;;;;;;;;;5045427;28;20077;-78
2022/12/03 10:27:00;;;;;;;44.80;15.63;;;;;;;;;;5046522;28;23001;-78
2022/12/03 10:29:36;;;;;;;47.22;15.95;;;;;;;;;;5041688;28;20485;-78
2022/12/03 10:32:11;;;;;;;41.35;15.23;;;;;;;;;;5043967;28;20060;-78
2022/12/03 10:34:40;;;;;;;54.28;16.35;;;;;;;;;;5042266;28;20049;-79
2022/12/03 10:37:07;;;;;;;46.35;14.77;;;;;;;;;;5043318;28;20592;-78
2022/12/03 10:39:54;;;;;;;48.53;17.00;;;;;;;;;;5042322;28;20054;-78
2022/12/03 10:42:23;;;;;;;44.20;15.52;;;;;;;;;;5048524;28;20060;-77
2022/12/03 10:45:11;;;;;;;50.08;16.77;;;;;;;;;;5045022;28;20058;-77
2022/12/03 10:47:39;;;;;;;48.28;16.23;;;;;;;;;;5056053;28;20053;-78
2022/12/03 10:50:14;;;;;;;44.63;15.98;;;;;;;;;;5036189;28;20572;-78
2022/12/03 10:52:41;;;;;;;46.88;16.15;;;;;;;;;;5038055;28;20827;-78
2022/12/03 10:55:11;;;;;;;48.90;18.33;;;;;;;;;;5044778;28;20056;-78
2022/12/03 10:57:40;;;;;;;41.38;16.40;;;;;;;;;;5044502;28;20112;-77
2022/12/03 11:00:16;;;;;;;48.10;15.95;;;;;;;;;;5044086;28;20052;-79
2022/12/03 11:02:43;;;;;;;47.45;16.08;;;;;;;;;;5041942;28;20142;-80
2022/12/03 11:05:28;;;;;;;46.00;16.42;;;;;;;;;;5045985;28;20057;-79
2022/12/03 11:07:56;;;;;;;43.15;15.50;;;;;;;;;;5042074;28;20038;-80
2022/12/03 11:10:23;;;;;;;39.00;15.10;;;;;;;;;;5047383;28;20076;-80
2022/12/03 11:13:09;;;;;;;41.75;17.75;;;;;;;;;;5040982;28;22180;-79
2022/12/03 11:15:43;;;;;;;49.65;16.95;;;;;;;;;;5043139;28;20515;-79
2022/12/03 11:18:11;;;;;;;52.17;18.00;;;;;;;;;;5047354;28;20057;-79
2022/12/03 11:20:42;;;;;;;42.50;16.42;;;;;;;;;;5042666;28;20100;-79
2022/12/03 11:23:10;;;;;;;40.40;16.05;;;;;;;;;;5045947;28;20879;-80
2022/12/03 11:26:03;;;;;;;42.58;15.98;;;;;;;;;;5046534;28;20069;-80
2022/12/03 11:28:31;;;;;;;44.70;16.38;;;;;;;;;;5043318;28;20538;-79
2022/12/03 11:31:01;;;;;;;43.25;16.63;;;;;;;;;;5045534;28;20051;-79
2022/12/03 11:33:36;;;;;;;31.90;13.23;;;;;;;;;;5043847;28;20107;-79
2022/12/03 11:36:04;;;;;;;34.15;12.93;;;;;;;;;;5040327;28;20049;-79
2022/12/03 11:38:40;;;;;;;37.13;14.82;;;;;;;;;;5047642;28;20090;-80
2022/12/03 11:41:12;;;;;;;34.80;13.63;;;;;;;;;;5055531;28;20064;-79
2022/12/03 11:43:55;;;;;;;31.23;12.50;;;;;;;;;;5046194;28;20049;-79
2022/12/03 11:46:24;;;;;;;31.75;12.80;;;;;;;;;;5051287;28;20060;-79
2022/12/03 11:48:52;;;;;;;36.53;12.70;;;;;;;;;;5045598;28;20089;-80
2022/12/03 11:51:22;;;;;;;32.33;12.55;;;;;;;;;;5049716;28;20868;-80
2022/12/03 11:53:55;;;;;;;46.92;19.20;;;;;;;;;;5044245;28;20050;-80
2022/12/03 11:56:24;;;;;;;48.25;19.75;;;;;;;;;;5047906;28;20053;-80
2022/12/03 11:58:59;;;;;;;34.70;16.35;;;;;;;;;;5042279;28;20528;-79
2022/12/03 12:01:35;;;;;;;50.78;22.10;;;;;;;;;;5062061;28;20072;-80
2022/12/03 12:04:05;;;;;;;31.25;13.05;;;;;;;;;;5049180;28;20548;-79
2022/12/03 12:06:40;;;;;;;30.75;11.13;;;;;;;;;;5045510;28;20057;-79
2022/12/03 12:09:08;;;;;;;38.25;16.25;;;;;;;;;;5046316;28;20095;-79
2022/12/03 12:11:39;;;;;;;28.67;11.35;;;;;;;;;;5045368;28;20045;-80
2022/12/03 12:14:13;;;;;;;26.45;11.07;;;;;;;;;;5054920;28;20154;-79
2022/12/03 12:16:57;;;;;;;29.63;11.48;;;;;;;;;;5051048;28;20053;-79
2022/12/03 12:19:41;;;;;;;24.75;10.05;;;;;;;;;;5043105;28;20096;-80
2022/12/03 12:22:15;;;;;;;24.02;10.40;;;;;;;;;;5045293;28;20049;-79
2022/12/03 12:24:46;;;;;;;24.98;11.02;;;;;;;;;;5045246;28;20046;-79
2022/12/03 12:27:29;;;;;;;26.77;10.80;;;;;;;;;;5045173;28;20049;-80
2022/12/03 12:30:00;;;;;;;29.38;12.70;;;;;;;;;;5040012;28;20875;-77
2022/12/03 12:32:29;;;;;;;31.95;13.02;;;;;;;;;;5040917;28;20099;-79
2022/12/03 12:35:13;;;;;;;35.03;15.15;;;;;;;;;;5041850;28;20476;-80
2022/12/03 12:38:00;;;;;;;24.70;10.32;;;;;;;;;;5041438;28;20041;-80
2022/12/03 12:40:48;;;;;;;28.05;11.73;;;;;;;;;;5046529;28;20041;-79
2022/12/03 12:43:15;;;;;;;;;;;;;;;;;;5044434;28;20057;-79
2022/12/03 12:45:50;;;;;;;27.75;11.77;;;;;;;;;;5055646;28;45089;-80
2022/12/03 12:48:24;;;;;;;30.27;12.15;;;;;;;;;;5059541;28;20049;-79
2022/12/03 12:50:54;;;;;;;;;;;;;;;;;;5052060;28;20057;-79
2022/12/03 12:53:23;;;;;;;30.80;11.13;;;;;;;;;;5038239;28;48182;-79
2022/12/03 12:56:07;;;;;;;30.25;11.07;;;;;;;;;;5040698;28;20061;-79
2022/12/03 12:58:35;;;;;;;31.23;11.57;;;;;;;;;;5064131;28;20057;-79
2022/12/03 13:01:09;;;;;;;28.42;10.63;;;;;;;;;;5047614;28;20674;-79
2022/12/03 13:03:38;;;;;;;29.48;11.07;;;;;;;;;;5038592;28;20113;-79
2022/12/03 13:06:09;;;;;;;31.05;10.95;;;;;;;;;;5042393;28;20504;-79
2022/12/03 13:08:42;;;;;;;29.17;10.35;;;;;;;;;;5047324;28;20052;-79
2022/12/03 13:11:30;;;;;;;30.33;10.63;;;;;;;;;;5043586;28;20126;-79
2022/12/03 13:13:58;;;;;;;33.65;11.45;;;;;;;;;;5047234;28;20295;-79
2022/12/03 13:16:30;;;;;;;35.85;13.50;;;;;;;;;;5045475;28;20050;-80
2022/12/03 13:19:01;;;;;;;55.73;19.33;;;;;;;;;;5041407;28;20050;-80
2022/12/03 13:21:38;;;;;;;42.22;16.98;;;;;;;;;;5052880;28;20258;-79
2022/12/03 13:24:26;;;;;;;49.10;17.48;;;;;;;;;;5045494;28;20073;-79
2022/12/03 13:26:54;;;;;;;39.05;16.38;;;;;;;;;;5041290;28;20471;-79
2022/12/03 13:29:21;;;;;;;33.03;12.30;;;;;;;;;;5045137;28;20108;-81
2022/12/03 13:31:52;;;;;;;30.33;12.02;;;;;;;;;;5046461;28;20033;-79
2022/12/03 13:34:20;;;;;;;35.30;13.82;;;;;;;;;;5052728;28;20115;-79
2022/12/03 13:36:48;;;;;;;28.83;11.55;;;;;;;;;;5045498;28;20053;-77
2022/12/03 13:39:31;;;;;;;34.20;11.45;;;;;;;;;;5058186;28;20076;-79
2022/12/03 13:44:56;;;;;;;31.40;11.60;;;;;;;;;;5046232;28;20061;-79
2022/12/03 13:47:24;;;;;;;34.65;11.98;;;;;;;;;;5050952;28;20041;-79
2022/12/03 13:49:56;;;;;;;32.90;13.10;;;;;;;;;;5046945;28;20060;-79
2022/12/03 13:52:24;;;;;;;30.23;12.10;;;;;;;;;;5048984;28;20049;-79
2022/12/03 13:54:56;;;;;;;36.50;13.65;;;;;;;;;;5051427;28;20049;-79
2022/12/03 13:57:23;;;;;;;37.03;12.40;;;;;;;;;;5047549;28;20057;-80
2022/12/03 13:59:50;;;;;;;38.47;13.75;;;;;;;;;;5049601;28;20077;-79
2022/12/03 14:02:21;;;;;;;42.47;14.80;;;;;;;;;;5045584;28;20041;-79
2022/12/03 14:04:48;;;;;;;49.13;16.15;;;;;;;;;;5059707;28;20144;-79
2022/12/03 14:07:19;;;;;;;45.13;15.55;;;;;;;;;;5052030;28;20088;-79
2022/12/03 14:09:46;;;;;;;42.80;16.42;;;;;;;;;;5043693;28;20053;-79
2022/12/03 14:12:26;;;;;;;53.97;17.92;;;;;;;;;;5043155;28;20049;-80
2022/12/03 14:14:53;;;;;;;48.70;16.67;;;;;;;;;;5048474;28;20053;-80
2022/12/03 14:17:21;;;;;;;50.88;17.05;;;;;;;;;;5050556;28;20050;-80
2022/12/03 14:19:49;;;;;;;48.63;16.70;;;;;;;;;;5043465;28;20049;-80
2022/12/03 14:22:22;;;;;;;45.60;15.45;;;;;;;;;;5046067;28;20080;-79
2022/12/03 14:24:50;;;;;;;39.07;15.33;;;;;;;;;;5049752;28;20132;-80
2022/12/03 14:27:21;;;;;;;49.38;17.00;;;;;;;;;;5036016;28;20990;-79
2022/12/03 14:29:48;;;;;;;46.30;16.75;;;;;;;;;;5045980;28;20898;-79
2022/12/03 14:32:16;;;;;;;45.72;16.35;;;;;;;;;;5041801;28;20057;-78
2022/12/03 14:34:44;;;;;;;60.55;19.05;;;;;;;;;;5039797;28;20495;-80
2022/12/03 14:37:11;;;;;;;55.13;20.60;;;;;;;;;;5047871;28;20049;-79
2022/12/03 14:39:38;;;;;;;48.30;16.73;;;;;;;;;;5050766;28;20053;-79
2022/12/03 14:42:12;;;;;;;51.80;17.65;;;;;;;;;;5043830;28;20502;-79
2022/12/03 14:44:40;;;;;;;41.33;15.25;;;;;;;;;;5044674;28;20099;-79
2022/12/03 14:47:23;;;;;;;47.78;16.27;;;;;;;;;;5016764;28;20516;-80
2022/12/03 14:49:51;;;;;;;39.65;14.48;;;;;;;;;;5045919;28;20050;-80
2022/12/03 14:52:19;;;;;;;39.40;15.20;;;;;;;;;;5048258;28;20594;-80
2022/12/03 14:54:46;;;;;;;39.55;15.23;;;;;;;;;;5059792;28;20049;-80
2022/12/03 14:57:14;;;;;;;45.28;14.98;;;;;;;;;;5046781;28;20053;-79